sensor_id;sensor_type;location;lat;lon;timestamp;P1;durP1;ratioP1;P2;durP2;ratioP2
8887;SDS011;4480;52.370;9.748;2023-06-26T00:01:07;9.50;;;8.50;;
8887;SDS011;4480;52.370;9.748;2023-06-26T00:03:34;9.20;;;8.40;;
8887;SDS011;4480;52.370;9.748;2023-06-26T00:06:00;9.00;;;8.20;;
8887;SDS011;4480;52.370;9.748;2023-06-26T00:08:27;8.70;;;7.90;;
8887;SDS011;4480;52.370;9.748;2023-06-26T00:10:54;8.40;;;7.60;;
8887;SDS011;4480;52.370;9.748;2023-06-26T00:13:23;9.50;;;8.20;;
8887;SDS011;4480;52.370;9.748;2023-06-26T00:15:50;9.43;;;8.53;;
8887;SDS011;4480;52.370;9.748;2023-06-26T00:18:17;9.97;;;9.10;;
8887;SDS011;4480;52.370;9.748;2023-06-26T00:20:44;9.23;;;8.27;;
8887;SDS011;4480;52.370;9.748;2023-06-26T00:23:11;9.70;;;8.70;;
8887;SDS011;4480;52.370;9.748;2023-06-26T00:25:41;9.27;;;7.80;;
8887;SDS011;4480;52.370;9.748;2023-06-26T00:28:08;9.87;;;8.50;;
8887;SDS011;4480;52.370;9.748;2023-06-26T00:30:37;10.10;;;9.20;;
8887;SDS011;4480;52.370;9.748;2023-06-26T00:33:04;8.90;;;8.10;;
8887;SDS011;4480;52.370;9.748;2023-06-26T00:35:30;8.53;;;7.73;;
8887;SDS011;4480;52.370;9.748;2023-06-26T00:37:57;10.20;;;9.20;;
8887;SDS011;4480;52.370;9.748;2023-06-26T00:40:24;10.13;;;9.13;;
8887;SDS011;4480;52.370;9.748;2023-06-26T00:42:54;9.03;;;8.30;;
8887;SDS011;4480;52.370;9.748;2023-06-26T00:45:21;10.60;;;9.50;;
8887;SDS011;4480;52.370;9.748;2023-06-26T00:47:49;8.63;;;7.83;;
8887;SDS011;4480;52.370;9.748;2023-06-26T00:50:16;9.03;;;8.13;;
8887;SDS011;4480;52.370;9.748;2023-06-26T00:52:43;7.60;;;6.90;;
8887;SDS011;4480;52.370;9.748;2023-06-26T00:55:10;8.60;;;7.80;;
8887;SDS011;4480;52.370;9.748;2023-06-26T00:57:37;7.23;;;6.63;;
8887;SDS011;4480;52.370;9.748;2023-06-26T01:00:04;7.30;;;6.60;;
8887;SDS011;4480;52.370;9.748;2023-06-26T01:02:32;8.23;;;7.43;;
8887;SDS011;4480;52.370;9.748;2023-06-26T01:05:00;8.47;;;7.60;;
8887;SDS011;4480;52.370;9.748;2023-06-26T01:07:31;7.77;;;7.07;;
8887;SDS011;4480;52.370;9.748;2023-06-26T01:10:01;10.10;;;7.53;;
8887;SDS011;4480;52.370;9.748;2023-06-26T01:12:29;7.43;;;6.77;;
8887;SDS011;4480;52.370;9.748;2023-06-26T01:14:56;7.20;;;6.50;;
8887;SDS011;4480;52.370;9.748;2023-06-26T01:17:23;8.60;;;7.80;;
8887;SDS011;4480;52.370;9.748;2023-06-26T01:19:50;7.00;;;6.40;;
8887;SDS011;4480;52.370;9.748;2023-06-26T01:22:27;7.80;;;7.10;;
8887;SDS011;4480;52.370;9.748;2023-06-26T01:25:11;9.40;;;8.60;;
8887;SDS011;4480;52.370;9.748;2023-06-26T01:27:44;7.80;;;7.10;;
8887;SDS011;4480;52.370;9.748;2023-06-26T01:30:13;7.30;;;6.60;;
8887;SDS011;4480;52.370;9.748;2023-06-26T01:32:41;7.20;;;6.60;;
8887;SDS011;4480;52.370;9.748;2023-06-26T01:35:09;7.73;;;7.03;;
8887;SDS011;4480;52.370;9.748;2023-06-26T01:37:37;7.40;;;6.70;;
8887;SDS011;4480;52.370;9.748;2023-06-26T01:40:04;8.13;;;6.70;;
8887;SDS011;4480;52.370;9.748;2023-06-26T01:42:31;6.90;;;6.30;;
8887;SDS011;4480;52.370;9.748;2023-06-26T01:44:59;7.50;;;6.80;;
8887;SDS011;4480;52.370;9.748;2023-06-26T01:47:31;6.80;;;6.10;;
8887;SDS011;4480;52.370;9.748;2023-06-26T01:50:02;7.17;;;6.43;;
8887;SDS011;4480;52.370;9.748;2023-06-26T01:52:35;8.10;;;6.80;;
8887;SDS011;4480;52.370;9.748;2023-06-26T01:55:09;8.00;;;7.30;;
8887;SDS011;4480;52.370;9.748;2023-06-26T01:57:41;7.80;;;7.00;;
8887;SDS011;4480;52.370;9.748;2023-06-26T02:00:10;6.53;;;5.93;;
8887;SDS011;4480;52.370;9.748;2023-06-26T02:02:40;7.67;;;6.97;;
8887;SDS011;4480;52.370;9.748;2023-06-26T02:05:07;7.13;;;6.53;;
8887;SDS011;4480;52.370;9.748;2023-06-26T02:07:34;7.10;;;6.40;;
8887;SDS011;4480;52.370;9.748;2023-06-26T02:10:01;7.57;;;6.47;;
8887;SDS011;4480;52.370;9.748;2023-06-26T02:12:28;7.30;;;6.60;;
8887;SDS011;4480;52.370;9.748;2023-06-26T02:14:55;6.83;;;6.20;;
8887;SDS011;4480;52.370;9.748;2023-06-26T02:17:23;7.73;;;6.93;;
8887;SDS011;4480;52.370;9.748;2023-06-26T02:19:50;7.40;;;6.70;;
8887;SDS011;4480;52.370;9.748;2023-06-26T02:22:17;7.13;;;6.43;;
8887;SDS011;4480;52.370;9.748;2023-06-26T02:24:43;6.87;;;6.27;;
8887;SDS011;4480;52.370;9.748;2023-06-26T02:27:10;6.73;;;6.03;;
8887;SDS011;4480;52.370;9.748;2023-06-26T02:29:39;6.00;;;5.40;;
8887;SDS011;4480;52.370;9.748;2023-06-26T02:32:06;6.70;;;6.10;;
8887;SDS011;4480;52.370;9.748;2023-06-26T02:34:35;7.30;;;6.70;;
8887;SDS011;4480;52.370;9.748;2023-06-26T02:37:02;6.43;;;5.83;;
8887;SDS011;4480;52.370;9.748;2023-06-26T02:39:32;10.07;;;6.47;;
8887;SDS011;4480;52.370;9.748;2023-06-26T02:41:59;6.67;;;5.90;;
8887;SDS011;4480;52.370;9.748;2023-06-26T02:44:26;7.37;;;5.87;;
8887;SDS011;4480;52.370;9.748;2023-06-26T02:46:53;6.73;;;6.13;;
8887;SDS011;4480;52.370;9.748;2023-06-26T02:49:20;6.47;;;5.87;;
8887;SDS011;4480;52.370;9.748;2023-06-26T02:51:48;6.60;;;6.00;;
8887;SDS011;4480;52.370;9.748;2023-06-26T02:54:15;7.43;;;6.67;;
8887;SDS011;4480;52.370;9.748;2023-06-26T02:56:41;6.57;;;5.60;;
8887;SDS011;4480;52.370;9.748;2023-06-26T02:59:08;6.87;;;5.87;;
8887;SDS011;4480;52.370;9.748;2023-06-26T03:01:35;6.40;;;5.30;;
8887;SDS011;4480;52.370;9.748;2023-06-26T03:04:02;6.40;;;5.80;;
8887;SDS011;4480;52.370;9.748;2023-06-26T03:06:29;6.47;;;5.87;;
8887;SDS011;4480;52.370;9.748;2023-06-26T03:08:58;5.90;;;5.40;;
8887;SDS011;4480;52.370;9.748;2023-06-26T03:11:24;6.77;;;5.77;;
8887;SDS011;4480;52.370;9.748;2023-06-26T03:13:51;8.90;;;6.13;;
8887;SDS011;4480;52.370;9.748;2023-06-26T03:16:18;7.43;;;6.40;;
8887;SDS011;4480;52.370;9.748;2023-06-26T03:18:45;6.13;;;5.27;;
8887;SDS011;4480;52.370;9.748;2023-06-26T03:21:12;7.80;;;6.03;;
8887;SDS011;4480;52.370;9.748;2023-06-26T03:23:38;6.47;;;5.87;;
8887;SDS011;4480;52.370;9.748;2023-06-26T03:26:06;5.93;;;5.33;;
8887;SDS011;4480;52.370;9.748;2023-06-26T03:28:33;5.80;;;5.30;;
8887;SDS011;4480;52.370;9.748;2023-06-26T03:31:00;6.87;;;5.90;;
8887;SDS011;4480;52.370;9.748;2023-06-26T03:33:27;6.27;;;5.63;;
8887;SDS011;4480;52.370;9.748;2023-06-26T03:35:53;6.17;;;5.23;;
8887;SDS011;4480;52.370;9.748;2023-06-26T03:38:21;9.37;;;5.60;;
8887;SDS011;4480;52.370;9.748;2023-06-26T03:40:49;6.80;;;6.10;;
8887;SDS011;4480;52.370;9.748;2023-06-26T03:43:17;9.10;;;5.40;;
8887;SDS011;4480;52.370;9.748;2023-06-26T03:45:43;5.60;;;5.20;;
8887;SDS011;4480;52.370;9.748;2023-06-26T03:48:11;8.40;;;6.07;;
8887;SDS011;4480;52.370;9.748;2023-06-26T03:50:38;12.87;;;5.43;;
8887;SDS011;4480;52.370;9.748;2023-06-26T03:53:05;8.33;;;5.40;;
8887;SDS011;4480;52.370;9.748;2023-06-26T03:55:31;6.40;;;5.80;;
8887;SDS011;4480;52.370;9.748;2023-06-26T03:57:59;7.90;;;5.20;;
8887;SDS011;4480;52.370;9.748;2023-06-26T04:00:27;6.53;;;5.40;;
8887;SDS011;4480;52.370;9.748;2023-06-26T04:02:54;6.53;;;5.30;;
8887;SDS011;4480;52.370;9.748;2023-06-26T04:05:21;6.60;;;5.40;;
8887;SDS011;4480;52.370;9.748;2023-06-26T04:07:49;7.83;;;5.20;;
8887;SDS011;4480;52.370;9.748;2023-06-26T04:11:51;6.27;;;5.27;;
8887;SDS011;4480;52.370;9.748;2023-06-26T04:14:18;6.20;;;5.20;;
8887;SDS011;4480;52.370;9.748;2023-06-26T04:16:45;5.20;;;4.70;;
8887;SDS011;4480;52.370;9.748;2023-06-26T04:19:12;5.27;;;4.43;;
8887;SDS011;4480;52.370;9.748;2023-06-26T04:21:39;7.53;;;5.10;;
8887;SDS011;4480;52.370;9.748;2023-06-26T04:24:06;6.60;;;5.80;;
8887;SDS011;4480;52.370;9.748;2023-06-26T04:26:33;4.90;;;4.50;;
8887;SDS011;4480;52.370;9.748;2023-06-26T04:29:01;7.37;;;5.13;;
8887;SDS011;4480;52.370;9.748;2023-06-26T04:31:28;5.77;;;5.17;;
8887;SDS011;4480;52.370;9.748;2023-06-26T04:33:55;6.33;;;4.87;;
8887;SDS011;4480;52.370;9.748;2023-06-26T04:36:22;5.23;;;4.73;;
8887;SDS011;4480;52.370;9.748;2023-06-26T04:38:53;5.23;;;4.70;;
8887;SDS011;4480;52.370;9.748;2023-06-26T04:41:20;5.00;;;4.60;;
8887;SDS011;4480;52.370;9.748;2023-06-26T04:43:47;5.23;;;4.73;;
8887;SDS011;4480;52.370;9.748;2023-06-26T04:46:15;6.13;;;4.90;;
8887;SDS011;4480;52.370;9.748;2023-06-26T04:48:42;8.37;;;5.80;;
8887;SDS011;4480;52.370;9.748;2023-06-26T04:51:10;5.53;;;5.10;;
8887;SDS011;4480;52.370;9.748;2023-06-26T04:53:37;5.27;;;4.77;;
8887;SDS011;4480;52.370;9.748;2023-06-26T04:56:03;5.13;;;4.73;;
8887;SDS011;4480;52.370;9.748;2023-06-26T04:58:30;5.77;;;5.20;;
8887;SDS011;4480;52.370;9.748;2023-06-26T05:00:57;5.30;;;4.80;;
8887;SDS011;4480;52.370;9.748;2023-06-26T05:03:25;5.27;;;4.73;;
8887;SDS011;4480;52.370;9.748;2023-06-26T05:05:52;5.67;;;5.17;;
8887;SDS011;4480;52.370;9.748;2023-06-26T05:08:20;8.33;;;5.10;;
8887;SDS011;4480;52.370;9.748;2023-06-26T05:10:48;7.33;;;5.87;;
8887;SDS011;4480;52.370;9.748;2023-06-26T05:13:15;5.37;;;4.80;;
8887;SDS011;4480;52.370;9.748;2023-06-26T05:15:44;5.40;;;4.90;;
8887;SDS011;4480;52.370;9.748;2023-06-26T05:18:11;6.90;;;5.30;;
8887;SDS011;4480;52.370;9.748;2023-06-26T05:20:40;6.10;;;5.50;;
8887;SDS011;4480;52.370;9.748;2023-06-26T05:23:07;6.20;;;5.60;;
8887;SDS011;4480;52.370;9.748;2023-06-26T05:25:36;5.10;;;4.70;;
8887;SDS011;4480;52.370;9.748;2023-06-26T05:28:03;5.27;;;4.87;;
8887;SDS011;4480;52.370;9.748;2023-06-26T05:30:31;4.83;;;4.43;;
8887;SDS011;4480;52.370;9.748;2023-06-26T05:33:00;6.10;;;5.60;;
8887;SDS011;4480;52.370;9.748;2023-06-26T05:35:28;8.50;;;5.07;;
8887;SDS011;4480;52.370;9.748;2023-06-26T05:37:57;6.00;;;5.20;;
8887;SDS011;4480;52.370;9.748;2023-06-26T05:40:24;5.90;;;5.30;;
8887;SDS011;4480;52.370;9.748;2023-06-26T05:42:52;6.93;;;6.23;;
8887;SDS011;4480;52.370;9.748;2023-06-26T05:45:19;5.73;;;4.97;;
8887;SDS011;4480;52.370;9.748;2023-06-26T05:47:46;8.23;;;5.67;;
8887;SDS011;4480;52.370;9.748;2023-06-26T05:50:15;7.03;;;5.87;;
8887;SDS011;4480;52.370;9.748;2023-06-26T05:52:43;5.63;;;5.23;;
8887;SDS011;4480;52.370;9.748;2023-06-26T05:55:13;5.03;;;4.53;;
8887;SDS011;4480;52.370;9.748;2023-06-26T05:57:40;7.27;;;5.50;;
8887;SDS011;4480;52.370;9.748;2023-06-26T06:00:07;5.77;;;5.27;;
8887;SDS011;4480;52.370;9.748;2023-06-26T06:02:36;8.53;;;5.30;;
8887;SDS011;4480;52.370;9.748;2023-06-26T06:05:03;6.87;;;4.93;;
8887;SDS011;4480;52.370;9.748;2023-06-26T06:07:31;5.53;;;5.03;;
8887;SDS011;4480;52.370;9.748;2023-06-26T06:09:58;6.33;;;5.73;;
8887;SDS011;4480;52.370;9.748;2023-06-26T06:12:26;5.40;;;4.47;;
8887;SDS011;4480;52.370;9.748;2023-06-26T06:14:53;7.23;;;5.23;;
8887;SDS011;4480;52.370;9.748;2023-06-26T06:17:21;5.57;;;5.07;;
8887;SDS011;4480;52.370;9.748;2023-06-26T06:19:48;6.30;;;5.00;;
8887;SDS011;4480;52.370;9.748;2023-06-26T06:22:15;8.07;;;5.60;;
8887;SDS011;4480;52.370;9.748;2023-06-26T06:24:42;5.30;;;4.77;;
8887;SDS011;4480;52.370;9.748;2023-06-26T06:27:10;5.73;;;5.23;;
8887;SDS011;4480;52.370;9.748;2023-06-26T06:29:38;7.83;;;5.30;;
8887;SDS011;4480;52.370;9.748;2023-06-26T06:32:05;6.00;;;5.40;;
8887;SDS011;4480;52.370;9.748;2023-06-26T06:34:32;5.80;;;5.30;;
8887;SDS011;4480;52.370;9.748;2023-06-26T06:36:59;6.10;;;5.40;;
8887;SDS011;4480;52.370;9.748;2023-06-26T06:39:28;5.83;;;5.33;;
8887;SDS011;4480;52.370;9.748;2023-06-26T06:41:55;5.23;;;4.83;;
8887;SDS011;4480;52.370;9.748;2023-06-26T06:44:22;5.90;;;5.30;;
8887;SDS011;4480;52.370;9.748;2023-06-26T06:46:50;5.90;;;4.70;;
8887;SDS011;4480;52.370;9.748;2023-06-26T06:49:16;5.93;;;5.30;;
8887;SDS011;4480;52.370;9.748;2023-06-26T06:51:44;6.07;;;5.57;;
8887;SDS011;4480;52.370;9.748;2023-06-26T06:54:11;7.03;;;5.43;;
8887;SDS011;4480;52.370;9.748;2023-06-26T06:56:38;6.17;;;5.50;;
8887;SDS011;4480;52.370;9.748;2023-06-26T06:59:05;6.33;;;5.73;;
8887;SDS011;4480;52.370;9.748;2023-06-26T07:01:32;5.80;;;5.30;;
8887;SDS011;4480;52.370;9.748;2023-06-26T07:04:00;6.03;;;5.53;;
8887;SDS011;4480;52.370;9.748;2023-06-26T07:06:28;5.90;;;5.47;;
8887;SDS011;4480;52.370;9.748;2023-06-26T07:08:55;6.93;;;5.03;;
8887;SDS011;4480;52.370;9.748;2023-06-26T07:11:22;6.00;;;5.33;;
8887;SDS011;4480;52.370;9.748;2023-06-26T07:13:49;6.77;;;6.10;;
8887;SDS011;4480;52.370;9.748;2023-06-26T07:16:16;7.53;;;5.80;;
8887;SDS011;4480;52.370;9.748;2023-06-26T07:18:43;7.10;;;6.40;;
8887;SDS011;4480;52.370;9.748;2023-06-26T07:21:11;7.10;;;5.93;;
8887;SDS011;4480;52.370;9.748;2023-06-26T07:23:38;7.13;;;6.43;;
8887;SDS011;4480;52.370;9.748;2023-06-26T07:26:05;7.13;;;6.40;;
8887;SDS011;4480;52.370;9.748;2023-06-26T07:28:31;5.97;;;5.47;;
8887;SDS011;4480;52.370;9.748;2023-06-26T07:30:58;7.00;;;6.40;;
8887;SDS011;4480;52.370;9.748;2023-06-26T07:33:25;9.07;;;6.07;;
8887;SDS011;4480;52.370;9.748;2023-06-26T07:35:52;6.80;;;6.07;;
8887;SDS011;4480;52.370;9.748;2023-06-26T07:38:20;6.10;;;5.60;;
8887;SDS011;4480;52.370;9.748;2023-06-26T07:40:47;7.43;;;5.83;;
8887;SDS011;4480;52.370;9.748;2023-06-26T07:43:13;7.13;;;6.43;;
8887;SDS011;4480;52.370;9.748;2023-06-26T07:45:40;6.63;;;6.03;;
8887;SDS011;4480;52.370;9.748;2023-06-26T07:48:08;7.00;;;6.37;;
8887;SDS011;4480;52.370;9.748;2023-06-26T07:50:34;7.63;;;6.60;;
8887;SDS011;4480;52.370;9.748;2023-06-26T07:53:01;6.20;;;5.70;;
8887;SDS011;4480;52.370;9.748;2023-06-26T07:55:31;7.10;;;6.50;;
8887;SDS011;4480;52.370;9.748;2023-06-26T07:57:58;6.53;;;5.93;;
8887;SDS011;4480;52.370;9.748;2023-06-26T08:00:26;6.60;;;6.00;;
8887;SDS011;4480;52.370;9.748;2023-06-26T08:02:53;7.03;;;6.43;;
8887;SDS011;4480;52.370;9.748;2023-06-26T08:05:20;6.90;;;6.20;;
8887;SDS011;4480;52.370;9.748;2023-06-26T08:07:46;10.37;;;6.93;;
8887;SDS011;4480;52.370;9.748;2023-06-26T08:10:13;7.27;;;6.67;;
8887;SDS011;4480;52.370;9.748;2023-06-26T08:12:41;6.90;;;6.20;;
8887;SDS011;4480;52.370;9.748;2023-06-26T08:15:10;7.27;;;6.53;;
8887;SDS011;4480;52.370;9.748;2023-06-26T08:17:37;8.00;;;7.20;;
8887;SDS011;4480;52.370;9.748;2023-06-26T08:20:04;6.13;;;5.60;;
8887;SDS011;4480;52.370;9.748;2023-06-26T08:22:33;8.20;;;6.17;;
8887;SDS011;4480;52.370;9.748;2023-06-26T08:25:01;10.53;;;7.67;;
8887;SDS011;4480;52.370;9.748;2023-06-26T08:27:29;6.60;;;6.00;;
8887;SDS011;4480;52.370;9.748;2023-06-26T08:29:57;7.80;;;6.70;;
8887;SDS011;4480;52.370;9.748;2023-06-26T08:32:24;7.47;;;6.67;;
8887;SDS011;4480;52.370;9.748;2023-06-26T08:34:51;7.40;;;6.80;;
8887;SDS011;4480;52.370;9.748;2023-06-26T08:37:18;6.67;;;6.07;;
8887;SDS011;4480;52.370;9.748;2023-06-26T08:39:45;8.03;;;7.33;;
8887;SDS011;4480;52.370;9.748;2023-06-26T08:42:11;6.10;;;5.60;;
8887;SDS011;4480;52.370;9.748;2023-06-26T08:44:38;7.07;;;6.10;;
8887;SDS011;4480;52.370;9.748;2023-06-26T08:47:06;7.00;;;6.33;;
8887;SDS011;4480;52.370;9.748;2023-06-26T08:49:34;7.77;;;7.00;;
8887;SDS011;4480;52.370;9.748;2023-06-26T08:52:13;6.60;;;5.93;;
8887;SDS011;4480;52.370;9.748;2023-06-26T08:54:45;7.53;;;6.83;;
8887;SDS011;4480;52.370;9.748;2023-06-26T08:57:13;7.00;;;6.40;;
8887;SDS011;4480;52.370;9.748;2023-06-26T08:59:44;6.70;;;6.10;;
8887;SDS011;4480;52.370;9.748;2023-06-26T09:02:13;7.50;;;6.90;;
8887;SDS011;4480;52.370;9.748;2023-06-26T09:04:40;8.80;;;7.33;;
8887;SDS011;4480;52.370;9.748;2023-06-26T09:07:07;7.80;;;7.10;;
8887;SDS011;4480;52.370;9.748;2023-06-26T09:09:34;7.50;;;6.90;;
8887;SDS011;4480;52.370;9.748;2023-06-26T09:12:01;8.20;;;7.40;;
8887;SDS011;4480;52.370;9.748;2023-06-26T09:14:28;8.57;;;7.67;;
8887;SDS011;4480;52.370;9.748;2023-06-26T09:16:56;9.37;;;8.40;;
8887;SDS011;4480;52.370;9.748;2023-06-26T09:19:24;8.13;;;7.40;;
8887;SDS011;4480;52.370;9.748;2023-06-26T09:21:50;9.53;;;7.47;;
8887;SDS011;4480;52.370;9.748;2023-06-26T09:24:17;8.40;;;7.07;;
8887;SDS011;4480;52.370;9.748;2023-06-26T09:26:44;7.90;;;7.10;;
8887;SDS011;4480;52.370;9.748;2023-06-26T09:29:11;7.70;;;7.00;;
8887;SDS011;4480;52.370;9.748;2023-06-26T09:31:39;8.33;;;7.63;;
8887;SDS011;4480;52.370;9.748;2023-06-26T09:34:06;8.17;;;7.37;;
8887;SDS011;4480;52.370;9.748;2023-06-26T09:36:35;8.77;;;7.97;;
8887;SDS011;4480;52.370;9.748;2023-06-26T09:39:02;9.47;;;8.63;;
8887;SDS011;4480;52.370;9.748;2023-06-26T09:41:33;9.80;;;7.90;;
8887;SDS011;4480;52.370;9.748;2023-06-26T09:44:01;9.87;;;8.97;;
8887;SDS011;4480;52.370;9.748;2023-06-26T09:46:29;13.43;;;9.10;;
8887;SDS011;4480;52.370;9.748;2023-06-26T09:49:01;14.73;;;9.40;;
8887;SDS011;4480;52.370;9.748;2023-06-26T09:51:30;10.53;;;9.63;;
8887;SDS011;4480;52.370;9.748;2023-06-26T09:53:59;10.50;;;9.50;;
8887;SDS011;4480;52.370;9.748;2023-06-26T09:56:26;9.97;;;8.97;;
8887;SDS011;4480;52.370;9.748;2023-06-26T09:58:55;9.07;;;7.63;;
8887;SDS011;4480;52.370;9.748;2023-06-26T10:01:23;10.07;;;8.23;;
8887;SDS011;4480;52.370;9.748;2023-06-26T10:03:50;15.20;;;7.67;;
8887;SDS011;4480;52.370;9.748;2023-06-26T10:06:18;10.00;;;8.87;;
8887;SDS011;4480;52.370;9.748;2023-06-26T10:08:48;9.13;;;8.13;;
8887;SDS011;4480;52.370;9.748;2023-06-26T10:11:19;9.70;;;8.73;;
8887;SDS011;4480;52.370;9.748;2023-06-26T10:13:47;9.80;;;8.93;;
8887;SDS011;4480;52.370;9.748;2023-06-26T10:16:18;11.43;;;9.90;;
8887;SDS011;4480;52.370;9.748;2023-06-26T10:18:52;10.07;;;8.53;;
8887;SDS011;4480;52.370;9.748;2023-06-26T10:21:22;10.90;;;9.80;;
8887;SDS011;4480;52.370;9.748;2023-06-26T10:23:51;10.40;;;9.40;;
8887;SDS011;4480;52.370;9.748;2023-06-26T10:26:22;9.53;;;8.70;;
8887;SDS011;4480;52.370;9.748;2023-06-26T10:28:51;10.37;;;8.80;;
8887;SDS011;4480;52.370;9.748;2023-06-26T10:31:20;18.67;;;8.93;;
8887;SDS011;4480;52.370;9.748;2023-06-26T10:33:49;8.83;;;7.77;;
8887;SDS011;4480;52.370;9.748;2023-06-26T10:36:17;10.70;;;8.80;;
8887;SDS011;4480;52.370;9.748;2023-06-26T10:38:50;9.50;;;7.50;;
8887;SDS011;4480;52.370;9.748;2023-06-26T10:41:19;11.00;;;9.90;;
8887;SDS011;4480;52.370;9.748;2023-06-26T10:43:52;10.97;;;9.80;;
8887;SDS011;4480;52.370;9.748;2023-06-26T10:46:33;11.10;;;10.00;;
8887;SDS011;4480;52.370;9.748;2023-06-26T10:49:00;13.70;;;10.50;;
8887;SDS011;4480;52.370;9.748;2023-06-26T10:51:28;13.80;;;11.03;;
8887;SDS011;4480;52.370;9.748;2023-06-26T10:53:55;13.23;;;11.10;;
8887;SDS011;4480;52.370;9.748;2023-06-26T10:59:12;11.23;;;10.10;;
8887;SDS011;4480;52.370;9.748;2023-06-26T11:01:41;13.63;;;10.17;;
8887;SDS011;4480;52.370;9.748;2023-06-26T11:04:09;12.10;;;10.90;;
8887;SDS011;4480;52.370;9.748;2023-06-26T11:06:37;13.13;;;11.73;;
8887;SDS011;4480;52.370;9.748;2023-06-26T11:09:09;12.90;;;11.57;;
8887;SDS011;4480;52.370;9.748;2023-06-26T11:11:56;14.87;;;12.20;;
8887;SDS011;4480;52.370;9.748;2023-06-26T11:14:28;11.80;;;10.60;;
8887;SDS011;4480;52.370;9.748;2023-06-26T11:16:56;10.27;;;9.37;;
8887;SDS011;4480;52.370;9.748;2023-06-26T11:19:25;17.00;;;11.40;;
8887;SDS011;4480;52.370;9.748;2023-06-26T11:21:57;10.37;;;9.30;;
8887;SDS011;4480;52.370;9.748;2023-06-26T11:24:29;11.73;;;9.57;;
8887;SDS011;4480;52.370;9.748;2023-06-26T11:26:59;10.93;;;9.83;;
8887;SDS011;4480;52.370;9.748;2023-06-26T11:29:29;13.30;;;10.77;;
8887;SDS011;4480;52.370;9.748;2023-06-26T11:32:00;12.63;;;10.03;;
8887;SDS011;4480;52.370;9.748;2023-06-26T11:34:30;12.13;;;9.60;;
8887;SDS011;4480;52.370;9.748;2023-06-26T11:36:58;10.90;;;9.50;;
8887;SDS011;4480;52.370;9.748;2023-06-26T11:39:30;12.70;;;10.20;;
8887;SDS011;4480;52.370;9.748;2023-06-26T11:41:57;10.10;;;9.20;;
8887;SDS011;4480;52.370;9.748;2023-06-26T11:44:25;10.03;;;9.13;;
8887;SDS011;4480;52.370;9.748;2023-06-26T11:46:57;10.87;;;8.50;;
8887;SDS011;4480;52.370;9.748;2023-06-26T11:49:24;9.30;;;8.43;;
8887;SDS011;4480;52.370;9.748;2023-06-26T11:51:52;8.77;;;7.13;;
8887;SDS011;4480;52.370;9.748;2023-06-26T11:54:24;8.47;;;6.83;;
8887;SDS011;4480;52.370;9.748;2023-06-26T11:56:52;8.77;;;8.00;;
8887;SDS011;4480;52.370;9.748;2023-06-26T11:59:23;7.90;;;7.10;;
8887;SDS011;4480;52.370;9.748;2023-06-26T12:01:51;9.10;;;6.50;;
8887;SDS011;4480;52.370;9.748;2023-06-26T12:04:18;6.50;;;5.63;;
8887;SDS011;4480;52.370;9.748;2023-06-26T12:06:47;7.30;;;5.00;;
8887;SDS011;4480;52.370;9.748;2023-06-26T12:09:16;4.97;;;4.57;;
8887;SDS011;4480;52.370;9.748;2023-06-26T12:11:44;4.73;;;4.23;;
8887;SDS011;4480;52.370;9.748;2023-06-26T12:14:13;4.93;;;4.40;;
8887;SDS011;4480;52.370;9.748;2023-06-26T12:16:41;5.70;;;3.70;;
8887;SDS011;4480;52.370;9.748;2023-06-26T12:19:10;3.83;;;3.47;;
8887;SDS011;4480;52.370;9.748;2023-06-26T12:21:47;5.47;;;3.70;;
8887;SDS011;4480;52.370;9.748;2023-06-26T12:24:18;4.80;;;3.50;;
8887;SDS011;4480;52.370;9.748;2023-06-26T12:26:46;7.70;;;4.00;;
8887;SDS011;4480;52.370;9.748;2023-06-26T12:29:14;6.90;;;4.33;;
8887;SDS011;4480;52.370;9.748;2023-06-26T12:31:42;4.40;;;3.90;;
8887;SDS011;4480;52.370;9.748;2023-06-26T12:34:11;4.50;;;3.43;;
8887;SDS011;4480;52.370;9.748;2023-06-26T12:36:42;4.73;;;3.47;;
8887;SDS011;4480;52.370;9.748;2023-06-26T12:39:10;5.23;;;3.90;;
8887;SDS011;4480;52.370;9.748;2023-06-26T12:41:44;4.03;;;3.23;;
8887;SDS011;4480;52.370;9.748;2023-06-26T12:44:21;4.43;;;3.50;;
8887;SDS011;4480;52.370;9.748;2023-06-26T12:46:53;4.00;;;3.47;;
8887;SDS011;4480;52.370;9.748;2023-06-26T12:49:30;4.17;;;3.80;;
8887;SDS011;4480;52.370;9.748;2023-06-26T12:51:58;3.60;;;3.13;;
8887;SDS011;4480;52.370;9.748;2023-06-26T12:54:25;10.50;;;3.90;;
8887;SDS011;4480;52.370;9.748;2023-06-26T12:56:52;3.43;;;3.03;;
8887;SDS011;4480;52.370;9.748;2023-06-26T12:59:19;4.10;;;2.83;;
8887;SDS011;4480;52.370;9.748;2023-06-26T13:01:46;3.50;;;3.20;;
8887;SDS011;4480;52.370;9.748;2023-06-26T13:04:13;4.20;;;2.60;;
8887;SDS011;4480;52.370;9.748;2023-06-26T13:06:42;4.43;;;3.20;;
8887;SDS011;4480;52.370;9.748;2023-06-26T13:09:09;4.57;;;3.30;;
8887;SDS011;4480;52.370;9.748;2023-06-26T13:11:36;3.63;;;3.00;;
8887;SDS011;4480;52.370;9.748;2023-06-26T13:14:03;4.20;;;3.10;;
8887;SDS011;4480;52.370;9.748;2023-06-26T13:16:30;6.03;;;3.00;;
8887;SDS011;4480;52.370;9.748;2023-06-26T13:18:57;3.47;;;3.17;;
8887;SDS011;4480;52.370;9.748;2023-06-26T13:21:25;5.00;;;3.80;;
8887;SDS011;4480;52.370;9.748;2023-06-26T13:23:53;6.73;;;3.17;;
8887;SDS011;4480;52.370;9.748;2023-06-26T13:26:20;4.30;;;3.30;;
8887;SDS011;4480;52.370;9.748;2023-06-26T13:28:47;4.20;;;3.43;;
8887;SDS011;4480;52.370;9.748;2023-06-26T13:31:14;5.20;;;2.93;;
8887;SDS011;4480;52.370;9.748;2023-06-26T13:33:41;4.77;;;3.00;;
8887;SDS011;4480;52.370;9.748;2023-06-26T13:36:09;4.30;;;3.07;;
8887;SDS011;4480;52.370;9.748;2023-06-26T13:38:36;3.13;;;2.83;;
8887;SDS011;4480;52.370;9.748;2023-06-26T13:41:04;3.10;;;2.27;;
8887;SDS011;4480;52.370;9.748;2023-06-26T13:43:31;3.43;;;2.63;;
8887;SDS011;4480;52.370;9.748;2023-06-26T13:45:58;2.97;;;2.60;;
8887;SDS011;4480;52.370;9.748;2023-06-26T13:48:26;4.50;;;2.90;;
8887;SDS011;4480;52.370;9.748;2023-06-26T13:50:53;4.70;;;2.60;;
8887;SDS011;4480;52.370;9.748;2023-06-26T13:53:19;4.07;;;2.80;;
8887;SDS011;4480;52.370;9.748;2023-06-26T13:55:46;6.63;;;2.97;;
8887;SDS011;4480;52.370;9.748;2023-06-26T13:58:15;4.67;;;3.03;;
8887;SDS011;4480;52.370;9.748;2023-06-26T14:00:42;4.00;;;2.90;;
8887;SDS011;4480;52.370;9.748;2023-06-26T14:03:10;4.00;;;2.20;;
8887;SDS011;4480;52.370;9.748;2023-06-26T14:05:37;2.90;;;2.00;;
8887;SDS011;4480;52.370;9.748;2023-06-26T14:08:05;3.07;;;2.40;;
8887;SDS011;4480;52.370;9.748;2023-06-26T14:10:33;5.17;;;2.80;;
8887;SDS011;4480;52.370;9.748;2023-06-26T14:13:00;3.67;;;2.70;;
8887;SDS011;4480;52.370;9.748;2023-06-26T14:15:29;5.20;;;2.80;;
8887;SDS011;4480;52.370;9.748;2023-06-26T14:17:56;3.40;;;2.57;;
8887;SDS011;4480;52.370;9.748;2023-06-26T14:20:24;6.93;;;3.23;;
8887;SDS011;4480;52.370;9.748;2023-06-26T14:22:50;2.80;;;2.60;;
8887;SDS011;4480;52.370;9.748;2023-06-26T14:25:17;2.57;;;2.37;;
8887;SDS011;4480;52.370;9.748;2023-06-26T14:27:44;3.67;;;2.70;;
8887;SDS011;4480;52.370;9.748;2023-06-26T14:30:11;2.73;;;2.20;;
8887;SDS011;4480;52.370;9.748;2023-06-26T14:32:40;3.47;;;2.30;;
8887;SDS011;4480;52.370;9.748;2023-06-26T14:35:07;5.67;;;2.40;;
8887;SDS011;4480;52.370;9.748;2023-06-26T14:37:35;2.80;;;2.50;;
8887;SDS011;4480;52.370;9.748;2023-06-26T14:40:04;3.67;;;2.27;;
8887;SDS011;4480;52.370;9.748;2023-06-26T14:42:32;9.73;;;2.30;;
8887;SDS011;4480;52.370;9.748;2023-06-26T14:44:59;2.67;;;2.20;;
8887;SDS011;4480;52.370;9.748;2023-06-26T14:47:25;2.27;;;1.93;;
8887;SDS011;4480;52.370;9.748;2023-06-26T14:49:54;5.83;;;2.80;;
8887;SDS011;4480;52.370;9.748;2023-06-26T14:52:20;6.60;;;2.40;;
8887;SDS011;4480;52.370;9.748;2023-06-26T14:54:47;4.87;;;2.33;;
8887;SDS011;4480;52.370;9.748;2023-06-26T14:57:14;4.60;;;2.20;;
8887;SDS011;4480;52.370;9.748;2023-06-26T14:59:41;3.27;;;2.47;;
8887;SDS011;4480;52.370;9.748;2023-06-26T15:02:08;3.90;;;2.40;;
8887;SDS011;4480;52.370;9.748;2023-06-26T15:04:35;4.17;;;2.33;;
8887;SDS011;4480;52.370;9.748;2023-06-26T15:07:03;4.30;;;2.47;;
8887;SDS011;4480;52.370;9.748;2023-06-26T15:09:31;4.60;;;1.70;;
8887;SDS011;4480;52.370;9.748;2023-06-26T15:11:58;7.00;;;2.80;;
8887;SDS011;4480;52.370;9.748;2023-06-26T15:14:24;5.67;;;3.00;;
8887;SDS011;4480;52.370;9.748;2023-06-26T15:16:51;5.60;;;2.90;;
8887;SDS011;4480;52.370;9.748;2023-06-26T15:19:18;6.27;;;2.70;;
8887;SDS011;4480;52.370;9.748;2023-06-26T15:21:45;3.43;;;3.00;;